Time;durP1;ratioP1;P1;durP2;ratioP2;P2;SDS_P1;SDS_P2;PMS_P1;PMS_P2;Temp;Humidity;BMP_temperature;BMP_pressure;BME280_temperature;BME280_humidity;BME280_pressure;Samples;Min_cycle;Max_cycle;Signal;HPM_P1;HPM_P2
2024/01/12 00:01:09;;;;;;;36.45;19.40;;;;;;;-5.14;100.00;99839.09;6109517;19;20026;-71
2024/01/12 00:03:09;;;;;;;38.10;20.13;;;;;;;-5.17;100.00;99835.00;6109490;19;20006;-71
2024/01/12 00:05:10;;;;;;;49.42;21.48;;;;;;;-5.15;100.00;99840.16;6107686;19;20470;-71
2024/01/12 00:07:10;;;;;;;43.63;21.35;;;;;;;-5.14;100.00;99839.91;6106780;19;20074;-71
2024/01/12 00:09:11;;;;;;;34.28;18.25;;;;;;;-5.12;100.00;99840.50;6108781;19;20019;-71
2024/01/12 00:11:12;;;;;;;54.78;23.17;;;;;;;-5.11;100.00;99842.16;6107591;19;20594;-71
2024/01/12 00:13:12;;;;;;;49.00;23.08;;;;;;;-5.07;100.00;99836.25;6107995;19;19999;-71
2024/01/12 00:15:12;;;;;;;42.13;20.33;;;;;;;-5.05;100.00;99836.81;6107827;19;20738;-71
2024/01/12 00:17:13;;;;;;;42.15;20.55;;;;;;;-5.10;100.00;99835.69;6107674;19;20014;-71
2024/01/12 00:19:14;;;;;;;37.55;20.58;;;;;;;-5.07;100.00;99839.78;6109140;19;20035;-71
2024/01/12 00:21:14;;;;;;;44.95;21.15;;;;;;;-5.09;100.00;99834.63;6109682;19;20020;-71
2024/01/12 00:23:14;;;;;;;44.45;20.58;;;;;;;-5.08;100.00;99830.03;6106784;19;19998;-71
2024/01/12 00:25:15;;;;;;;40.33;20.52;;;;;;;-5.09;100.00;99842.72;6110454;19;20009;-71
2024/01/12 00:27:15;;;;;;;43.30;20.08;;;;;;;-5.08;100.00;99838.13;6107350;19;20016;-71
2024/01/12 00:29:15;;;;;;;39.03;20.48;;;;;;;-5.05;100.00;99834.94;6109070;19;20590;-71
2024/01/12 00:31:16;;;;;;;42.10;20.35;;;;;;;-5.03;100.00;99834.72;6108858;19;20281;-71
2024/01/12 00:33:16;;;;;;;37.30;19.20;;;;;;;-5.02;100.00;99837.16;6106798;19;19999;-71
2024/01/12 00:35:16;;;;;;;46.67;21.05;;;;;;;-5.04;100.00;99836.59;6107510;19;19998;-71
2024/01/12 00:37:17;;;;;;;50.70;20.75;;;;;;;-5.04;100.00;99831.22;6107038;19;20007;-71
2024/01/12 00:39:17;;;;;;;39.38;18.83;;;;;;;-5.02;100.00;99839.06;6108660;19;20003;-71
2024/01/12 00:41:17;;;;;;;40.00;18.08;;;;;;;-5.01;100.00;99829.88;6108630;19;20471;-71
2024/01/12 00:43:18;;;;;;;39.50;18.95;;;;;;;-4.99;100.00;99836.66;6105589;19;20030;-71
2024/01/12 00:45:18;;;;;;;41.38;19.45;;;;;;;-5.00;100.00;99829.63;6107850;19;20036;-71
2024/01/12 00:47:18;;;;;;;36.60;18.58;;;;;;;-4.97;100.00;99833.72;6108077;19;20382;-71
2024/01/12 00:49:19;;;;;;;37.05;19.23;;;;;;;-4.96;100.00;99838.09;6100758;19;20013;-71
2024/01/12 00:51:19;;;;;;;38.08;18.85;;;;;;;-4.97;100.00;99831.03;6100299;19;20925;-71
2024/01/12 00:53:20;;;;;;;32.25;17.65;;;;;;;-4.99;100.00;99833.16;6098505;19;20523;-72
2024/01/12 00:55:20;;;;;;;46.88;18.75;;;;;;;-4.98;100.00;99842.88;6098863;19;20350;-71
2024/01/12 00:57:21;;;;;;;36.75;18.05;;;;;;;-4.96;100.00;99832.69;6100120;19;19999;-71
2024/01/12 00:59:22;;;;;;;35.65;17.63;;;;;;;-4.96;100.00;99836.22;6100653;19;20326;-71
2024/01/12 01:01:22;;;;;;;38.72;18.17;;;;;;;-4.88;100.00;99834.97;6099605;19;19998;-71
2024/01/12 01:03:23;;;;;;;38.28;19.80;;;;;;;-4.91;100.00;99833.56;6098483;19;20046;-71
2024/01/12 01:05:23;;;;;;;39.50;18.08;;;;;;;-4.89;100.00;99838.72;6100859;19;20467;-72
2024/01/12 01:07:23;;;;;;;35.60;17.52;;;;;;;-4.92;100.00;99821.16;6099222;19;20337;-72
2024/01/12 01:09:24;;;;;;;35.80;17.38;;;;;;;-4.91;100.00;99825.47;6099854;19;20329;-71
2024/01/12 01:11:24;;;;;;;35.38;18.27;;;;;;;-4.91;100.00;99832.75;6100041;19;20335;-71
2024/01/12 01:13:24;;;;;;;39.40;19.38;;;;;;;-4.93;100.00;99824.09;6098149;19;20512;-71
2024/01/12 01:15:25;;;;;;;38.88;20.98;;;;;;;-4.90;100.00;99820.91;6098838;19;20462;-71
2024/01/12 01:17:25;;;;;;;39.15;19.55;;;;;;;-4.89;100.00;99827.94;6099044;19;20003;-71
2024/01/12 01:19:26;;;;;;;38.78;19.58;;;;;;;-4.89;100.00;99834.16;6100002;19;20007;-71
2024/01/12 01:21:26;;;;;;;48.10;21.63;;;;;;;-4.90;100.00;99837.09;6098598;19;20926;-71
2024/01/12 01:23:27;;;;;;;33.97;18.52;;;;;;;-4.88;100.00;99846.59;6098758;19;20024;-71
2024/01/12 01:25:27;;;;;;;41.50;19.42;;;;;;;-4.90;100.00;99837.09;6099326;19;20010;-71
2024/01/12 01:27:27;;;;;;;41.60;19.30;;;;;;;-4.89;100.00;99844.13;6098698;19;20002;-71
2024/01/12 01:29:28;;;;;;;35.03;18.92;;;;;;;-4.91;100.00;99840.84;6099180;19;20025;-71
2024/01/12 01:31:28;;;;;;;34.13;17.98;;;;;;;-4.89;100.00;99847.66;6100008;19;20019;-71
2024/01/12 01:33:29;;;;;;;36.50;18.73;;;;;;;-4.88;100.00;99834.97;6097291;19;20401;-71
2024/01/12 01:35:29;;;;;;;34.45;17.77;;;;;;;-4.86;100.00;99827.47;6098155;19;20002;-71
2024/01/12 01:37:29;;;;;;;33.83;17.52;;;;;;;-4.87;100.00;99831.22;6098649;19;20788;-71
2024/01/12 01:39:29;;;;;;;42.42;19.55;;;;;;;-4.88;100.00;99825.00;6099115;19;19999;-71
2024/01/12 01:41:30;;;;;;;43.03;20.45;;;;;;;-4.87;100.00;99825.81;6098594;19;20742;-71
2024/01/12 01:43:30;;;;;;;42.42;20.13;;;;;;;-4.85;100.00;99829.09;6098360;19;20036;-71
2024/01/12 01:45:33;;;;;;;35.83;18.33;;;;;;;-4.86;100.00;99832.84;6098655;19;20019;-71
2024/01/12 01:47:34;;;;;;;39.33;19.08;;;;;;;-4.85;100.00;99829.91;6098558;19;20003;-71
2024/01/12 01:49:34;;;;;;;34.70;17.67;;;;;;;-4.83;100.00;99835.06;6107426;19;20006;-71
2024/01/12 01:51:35;;;;;;;43.83;19.52;;;;;;;-4.83;100.00;99835.88;6112844;19;20013;-71
2024/01/12 01:53:36;;;;;;;39.20;19.50;;;;;;;-4.80;100.00;99834.56;6111170;19;20021;-71
2024/01/12 01:55:36;;;;;;;38.13;19.73;;;;;;;-4.79;100.00;99830.00;6112237;19;20004;-71
2024/01/12 01:57:39;;;;;;;41.20;19.17;;;;;;;-4.80;100.00;99823.75;6111271;19;20003;-72
2024/01/12 01:59:39;;;;;;;37.65;17.65;;;;;;;-4.81;100.00;99825.66;6111939;19;20002;-71
2024/01/12 02:01:40;;;;;;;35.67;18.15;;;;;;;-4.79;100.00;99827.31;6111658;19;19998;-71
2024/01/12 02:03:41;;;;;;;45.63;20.02;;;;;;;-4.79;100.00;99827.31;6111025;19;20491;-71
2024/01/12 02:05:43;;;;;;;40.45;18.67;;;;;;;-4.78;100.00;99832.47;6110435;19;20038;-71
2024/01/12 02:07:43;;;;;;;41.65;19.27;;;;;;;-4.76;100.00;99835.72;6112676;19;20459;-71
2024/01/12 02:09:44;;;;;;;37.45;20.00;;;;;;;-4.74;100.00;99839.00;6111831;19;20002;-71
2024/01/12 02:11:44;;;;;;;38.80;19.10;;;;;;;-4.70;100.00;99842.03;6112666;19;20007;-72
2024/01/12 02:13:45;;;;;;;39.97;18.48;;;;;;;-4.69;100.00;99838.28;6110783;19;20487;-72
2024/01/12 02:15:45;;;;;;;39.22;20.35;;;;;;;-4.71;100.00;99833.13;6110955;19;20022;-72
2024/01/12 02:17:45;;;;;;;36.30;18.52;;;;;;;-4.68;100.00;99839.91;6111614;19;20014;-71
2024/01/12 02:19:46;;;;;;;35.40;18.48;;;;;;;-4.68;100.00;99848.00;6112231;19;20227;-71
2024/01/12 02:21:46;;;;;;;37.22;18.95;;;;;;;-4.68;100.00;99848.81;6111886;19;20006;-71
2024/01/12 02:23:46;;;;;;;36.80;17.77;;;;;;;-4.67;100.00;99847.75;6110506;19;20352;-71
2024/01/12 02:25:47;;;;;;;40.00;19.33;;;;;;;-4.66;100.00;99848.56;6111087;19;20392;-71
2024/01/12 02:27:48;;;;;;;41.95;19.85;;;;;;;-4.61;100.00;99856.75;6111802;19;20069;-71
2024/01/12 02:29:51;;;;;;;35.40;19.30;;;;;;;-4.60;100.00;99859.22;6111684;19;20058;-71
2024/01/12 02:31:52;;;;;;;43.03;20.67;;;;;;;-4.58;100.00;99842.75;6111382;19;20007;-71
2024/01/12 02:33:52;;;;;;;36.53;18.58;;;;;;;-4.55;100.00;99859.31;6109439;19;20011;-71
2024/01/12 02:35:52;;;;;;;43.25;19.55;;;;;;;-4.54;100.00;99849.31;6110114;19;20321;-71
2024/01/12 02:37:53;;;;;;;37.72;20.45;;;;;;;-4.52;100.00;99844.47;6109719;19;20070;-71
2024/01/12 02:39:53;;;;;;;35.72;18.08;;;;;;;-4.52;100.00;99856.09;6111522;19;20002;-71
2024/01/12 02:41:57;;;;;;;39.90;18.60;;;;;;;-4.52;100.00;99853.41;6111624;19;20009;-72
2024/01/12 02:43:57;;;;;;;32.80;18.30;;;;;;;-4.53;100.00;99856.34;6110229;19;20007;-72
2024/01/12 02:45:58;;;;;;;35.28;18.08;;;;;;;-4.55;100.00;99851.22;6110661;19;20764;-71
2024/01/12 02:47:58;;;;;;;36.25;18.13;;;;;;;-4.52;100.00;99852.59;6110553;19;20080;-71
2024/01/12 02:49:58;;;;;;;38.58;19.67;;;;;;;-4.52;100.00;99852.59;6110747;19;20023;-71
2024/01/12 02:51:59;;;;;;;36.08;18.10;;;;;;;-4.52;100.00;99849.88;6111804;19;20007;-71
2024/01/12 02:54:00;;;;;;;36.90;18.58;;;;;;;-4.52;100.00;99845.31;6109898;19;20117;-71
2024/01/12 02:56:00;;;;;;;36.42;17.73;;;;;;;-4.50;100.00;99841.53;6110789;19;20033;-71
2024/01/12 02:58:00;;;;;;;41.05;19.45;;;;;;;-4.47;100.00;99841.84;6111240;19;20007;-71
2024/01/12 03:00:00;;;;;;;37.00;18.40;;;;;;;-4.45;100.00;99833.53;6109704;19;20123;-71
2024/01/12 03:02:01;;;;;;;38.80;19.33;;;;;;;-4.44;100.00;99840.56;6110846;19;20323;-71
2024/01/12 03:04:01;;;;;;;38.97;18.27;;;;;;;-4.43;100.00;99839.50;6108597;19;20007;-71
2024/01/12 03:06:02;;;;;;;33.47;17.23;;;;;;;-4.42;100.00;99850.03;6110463;19;20383;-71
2024/01/12 03:08:03;;;;;;;36.67;17.42;;;;;;;-4.38;100.00;99844.97;6110488;19;20489;-72
2024/01/12 03:10:04;;;;;;;36.65;18.90;;;;;;;-4.34;100.00;99838.00;6108940;19;20002;-71
2024/01/12 03:12:05;;;;;;;40.47;17.63;;;;;;;-4.35;100.00;99839.88;6111259;19;20512;-71
2024/01/12 03:14:05;;;;;;;36.03;17.77;;;;;;;-4.37;100.00;99839.31;6109669;19;20006;-71
2024/01/12 03:16:06;;;;;;;30.85;16.25;;;;;;;-4.40;100.00;99839.78;6111120;19;20001;-71
2024/01/12 03:18:06;;;;;;;35.20;16.92;;;;;;;-4.37;100.00;99843.91;6110432;19;20125;-71
2024/01/12 03:20:08;;;;;;;32.55;15.90;;;;;;;-4.37;100.00;99831.22;6111672;19;20447;-71
2024/01/12 03:22:08;;;;;;;32.63;16.27;;;;;;;-4.35;100.00;99825.56;6111807;19;19998;-71
2024/01/12 03:24:09;;;;;;;37.58;18.40;;;;;;;-4.28;100.00;99826.22;6109536;19;19995;-71
2024/01/12 03:26:09;;;;;;;28.15;15.15;;;;;;;-4.26;100.00;99830.28;6112030;19;19994;-71
2024/01/12 03:28:09;;;;;;;32.92;15.30;;;;;;;-4.26;100.00;99821.38;6109727;19;20364;-71
2024/01/12 03:30:10;;;;;;;28.83;14.35;;;;;;;-4.28;100.00;99816.22;6111354;19;20386;-71
2024/01/12 03:32:10;;;;;;;29.48;14.95;;;;;;;-4.25;100.00;99831.94;6109655;19;20012;-71
2024/01/12 03:34:11;;;;;;;32.05;15.57;;;;;;;-4.25;100.00;99831.09;6109951;19;20003;-71
2024/01/12 03:36:13;;;;;;;30.10;15.35;;;;;;;-4.22;100.00;99836.00;6110622;19;20304;-71
2024/01/12 03:38:13;;;;;;;30.27;16.25;;;;;;;-4.20;100.00;99835.78;6111636;19;20007;-71
2024/01/12 03:40:13;;;;;;;33.17;15.95;;;;;;;-4.16;100.00;99826.09;6110258;19;20089;-71
2024/01/12 03:42:14;;;;;;;28.73;15.10;;;;;;;-4.12;100.00;99828.06;6111903;19;20009;-71
2024/01/12 03:44:14;;;;;;;31.55;15.93;;;;;;;-4.16;100.00;99815.28;6109755;19;20003;-71
2024/01/12 03:46:14;;;;;;;34.60;15.88;;;;;;;-4.17;100.00;99825.28;6108707;19;20249;-71
2024/01/12 03:48:14;;;;;;;30.75;15.63;;;;;;;-4.19;100.00;99818.50;6109708;19;20002;-71
2024/01/12 03:50:15;;;;;;;25.92;13.43;;;;;;;-4.17;100.00;99825.28;6110892;19;20451;-71
2024/01/12 03:52:15;;;;;;;27.88;14.50;;;;;;;-4.13;100.00;99812.91;6110678;19;20351;-71
2024/01/12 03:54:16;;;;;;;29.30;15.90;;;;;;;-4.11;100.00;99810.78;6108168;19;20022;-71
2024/01/12 03:56:16;;;;;;;27.63;13.52;;;;;;;-4.12;100.00;99809.16;6110350;19;20016;-71
2024/01/12 03:58:16;;;;;;;29.02;14.45;;;;;;;-4.09;100.00;99818.63;6110139;19;19999;-71
2024/01/12 04:00:17;;;;;;;28.95;15.40;;;;;;;-4.06;100.00;99820.81;6109981;19;20019;-71
2024/01/12 04:02:18;;;;;;;28.67;13.60;;;;;;;-4.07;100.00;99814.59;6110245;19;20330;-71
2024/01/12 04:04:18;;;;;;;24.33;11.70;;;;;;;-3.97;100.00;99814.75;6109018;19;20343;-71
2024/01/12 04:06:18;;;;;;;22.75;11.27;;;;;;;-3.88;100.00;99814.34;6109971;19;19991;-71
2024/01/12 04:08:19;;;;;;;24.27;11.43;;;;;;;-3.81;100.00;99810.34;6110281;19;19995;-71
2024/01/12 04:10:19;;;;;;;27.48;12.98;;;;;;;-3.78;100.00;99817.16;6110450;19;20085;-71
2024/01/12 04:12:19;;;;;;;30.63;14.85;;;;;;;-3.77;100.00;99813.38;6107477;19;20013;-71
2024/01/12 04:14:20;;;;;;;30.67;15.57;;;;;;;-3.79;100.00;99808.22;6107387;19;20363;-71
2024/01/12 04:16:20;;;;;;;23.55;12.52;;;;;;;-3.82;100.00;99800.59;6110854;19;20356;-71
2024/01/12 04:18:20;;;;;;;26.90;13.10;;;;;;;-3.79;100.00;99808.22;6109073;19;20105;-71
2024/01/12 04:20:21;;;;;;;21.83;10.88;;;;;;;-3.46;100.00;99799.16;6110544;19;20542;-71
2024/01/12 04:22:21;;;;;;;17.05;7.97;;;;;;;-3.36;100.00;99808.44;6110137;19;20318;-71
2024/01/12 04:24:21;;;;;;;15.50;7.95;;;;;;;-3.21;100.00;99803.19;6108494;19;20006;-71
2024/01/12 04:26:22;;;;;;;15.18;7.30;;;;;;;-3.07;100.00;99806.28;6109141;19;20036;-71
2024/01/12 04:28:22;;;;;;;13.77;7.80;;;;;;;-3.02;100.00;99804.44;6109519;19;19999;-71
2024/01/12 04:30:22;;;;;;;14.27;6.78;;;;;;;-2.86;100.00;99805.41;6109652;19;20010;-71
2024/01/12 04:32:22;;;;;;;14.85;7.15;;;;;;;-2.89;100.00;99806.75;6110005;19;20006;-71
2024/01/12 04:34:23;;;;;;;11.93;6.60;;;;;;;-2.87;100.00;99807.31;6106482;19;20074;-71
2024/01/12 04:36:23;;;;;;;16.25;6.95;;;;;;;-2.87;100.00;99812.72;6111242;19;20036;-70
2024/01/12 04:38:25;;;;;;;18.52;7.28;;;;;;;-2.92;100.00;99803.72;6108746;19;20006;-71
2024/01/12 04:40:25;;;;;;;16.52;7.15;;;;;;;-2.96;100.00;99810.75;6109859;19;20002;-70
2024/01/12 04:42:26;;;;;;;11.93;6.35;;;;;;;-2.99;100.00;99798.50;6110114;19;20494;-71
2024/01/12 04:44:26;;;;;;;17.27;7.40;;;;;;;-2.98;100.00;99796.63;6107227;19;20014;-71
2024/01/12 04:46:28;;;;;;;18.05;6.80;;;;;;;-3.01;100.00;99784.41;6107838;19;20018;-71
2024/01/12 04:48:28;;;;;;;10.55;5.50;;;;;;;-2.99;100.00;99790.38;6099147;19;20418;-71
2024/01/12 04:50:28;;;;;;;13.45;6.43;;;;;;;-2.96;100.00;99784.47;6107594;19;20014;-71
2024/01/12 04:52:29;;;;;;;11.88;6.45;;;;;;;-2.90;100.00;99771.78;6108845;19;20014;-70
2024/01/12 04:54:29;;;;;;;15.15;7.32;;;;;;;-2.95;100.00;99785.28;6105444;19;20011;-71
2024/01/12 04:56:29;;;;;;;16.80;7.18;;;;;;;-2.96;100.00;99795.31;6109554;19;20385;-71
2024/01/12 04:58:29;;;;;;;18.73;7.88;;;;;;;-2.91;100.00;99789.09;6107659;19;20014;-71
2024/01/12 05:00:30;;;;;;;19.52;8.02;;;;;;;-2.89;100.00;99784.28;6108911;19;20006;-71
2024/01/12 05:02:30;;;;;;;12.05;6.22;;;;;;;-2.85;100.00;99790.78;6107141;19;20322;-71
2024/01/12 05:04:30;;;;;;;14.68;6.65;;;;;;;-2.87;100.00;99782.94;6105117;19;20027;-71
2024/01/12 05:06:31;;;;;;;18.42;7.63;;;;;;;-2.87;100.00;99791.06;6108641;19;20038;-71
2024/01/12 05:08:33;;;;;;;16.85;7.78;;;;;;;-2.84;100.00;99800.53;6107432;19;20337;-71
2024/01/12 05:10:33;;;;;;;;;;;;;;;-2.85;100.00;99793.50;6110294;19;20454;-71
2024/01/12 05:12:36;;;;;;;15.95;7.10;;;;;;;-2.83;100.00;99799.47;6108533;19;19925;-71
2024/01/12 05:14:37;;;;;;;15.00;7.00;;;;;;;-2.82;100.00;99807.31;6105170;19;20002;-71
2024/01/12 05:16:37;;;;;;;15.95;7.10;;;;;;;-2.84;100.00;99805.97;6108573;19;20400;-70
2024/01/12 05:18:37;;;;;;;15.35;6.63;;;;;;;-2.85;100.00;99807.84;6107881;19;20455;-70
2024/01/12 05:20:37;;;;;;;18.17;8.65;;;;;;;-2.86;100.00;99798.09;6108287;19;20019;-70
2024/01/12 05:22:38;;;;;;;17.25;7.35;;;;;;;-2.85;100.00;99798.91;6107381;19;20354;-70
2024/01/12 05:24:38;;;;;;;20.88;7.57;;;;;;;-2.80;100.00;99806.28;6106762;19;20007;-71
2024/01/12 05:26:38;;;;;;;16.58;8.45;;;;;;;-2.81;100.00;99802.75;6108216;19;20007;-71
2024/01/12 05:28:39;;;;;;;18.90;7.53;;;;;;;-2.80;100.00;99803.56;6106987;19;20014;-71
2024/01/12 05:30:39;;;;;;;16.70;7.28;;;;;;;-2.77;100.00;99803.84;6109040;19;20826;-71
2024/01/12 05:32:39;;;;;;;13.15;6.47;;;;;;;-2.71;100.00;99804.72;6107553;19;20007;-71
2024/01/12 05:34:40;;;;;;;15.45;6.97;;;;;;;-2.71;100.00;99805.53;6103854;19;20010;-71
2024/01/12 05:36:40;;;;;;;15.77;7.22;;;;;;;-2.68;100.00;99810.44;6108059;19;20386;-71
2024/01/12 05:38:40;;;;;;;16.05;6.22;;;;;;;-2.69;100.00;99806.09;6107951;19;20009;-71
2024/01/12 05:40:41;;;;;;;17.35;7.15;;;;;;;-2.69;100.00;99814.22;6107469;19;20007;-71
2024/01/12 05:42:41;;;;;;;17.48;8.48;;;;;;;-2.66;100.00;99805.56;6107092;19;20021;-71
2024/01/12 05:44:41;;;;;;;20.05;7.80;;;;;;;-2.65;100.00;99814.50;6105766;19;20017;-71
2024/01/12 05:46:42;;;;;;;15.40;7.07;;;;;;;-2.68;100.00;99807.72;6107952;19;20020;-71
2024/01/12 05:48:42;;;;;;;18.13;6.65;;;;;;;-2.67;100.00;99816.66;6100439;19;20014;-70
2024/01/12 05:50:42;;;;;;;14.98;6.50;;;;;;;-2.65;100.00;99812.66;6100487;19;20007;-71
2024/01/12 05:52:43;;;;;;;17.40;6.85;;;;;;;-2.57;100.00;99814.03;6099113;19;20424;-71
2024/01/12 05:54:43;;;;;;;15.85;6.70;;;;;;;-2.57;100.00;99814.84;6097215;19;20085;-70
2024/01/12 05:56:44;;;;;;;14.05;6.18;;;;;;;-2.60;100.00;99814.56;6099044;19;20007;-71
2024/01/12 05:58:44;;;;;;;15.48;6.75;;;;;;;-2.58;100.00;99812.41;6099609;19;20023;-71
2024/01/12 06:00:45;;;;;;;14.60;6.50;;;;;;;-2.60;100.00;99812.66;6098873;19;20007;-71
2024/01/12 06:02:45;;;;;;;16.65;7.15;;;;;;;-2.60;100.00;99809.13;6100307;19;20261;-71
2024/01/12 06:04:45;;;;;;;13.85;6.88;;;;;;;-2.58;100.00;99805.09;5975440;19;20013;-70
2024/01/12 06:06:46;;;;;;;16.38;7.57;;;;;;;-2.54;100.00;99797.28;6097942;19;20017;-70
2024/01/12 06:08:46;;;;;;;22.63;8.27;;;;;;;-2.60;100.00;99804.53;6098250;19;20007;-71
2024/01/12 06:10:47;;;;;;;20.55;9.10;;;;;;;-2.62;100.00;99806.69;6099455;19;20011;-71
2024/01/12 06:12:47;;;;;;;12.23;6.22;;;;;;;-2.62;100.00;99806.69;6098403;19;20013;-71
2024/01/12 06:14:47;;;;;;;14.85;6.95;;;;;;;-2.65;100.00;99804.50;6096664;19;20017;-71
2024/01/12 06:16:48;;;;;;;16.25;7.75;;;;;;;-2.67;100.00;99800.41;6098415;19;20014;-71
2024/01/12 06:18:48;;;;;;;18.35;7.60;;;;;;;-2.69;100.00;99805.28;6098547;19;20006;-71
2024/01/12 06:20:48;;;;;;;15.82;7.65;;;;;;;-2.65;100.00;99806.38;6099156;19;20514;-71
2024/01/12 06:22:49;;;;;;;16.85;7.45;;;;;;;-2.62;100.00;99811.31;6098820;19;20007;-71
2024/01/12 06:24:49;;;;;;;19.90;8.55;;;;;;;-2.63;100.00;99812.38;6097094;19;20020;-71
2024/01/12 06:26:49;;;;;;;24.08;10.25;;;;;;;-2.63;100.00;99807.78;6097584;19;20031;-71
2024/01/12 06:28:49;;;;;;;32.75;14.38;;;;;;;-2.63;100.00;99804.25;6096872;19;20355;-71
2024/01/12 06:30:53;;;;;;;27.30;11.95;;;;;;;-2.64;100.00;99800.72;6097611;19;20010;-71
2024/01/12 06:32:53;;;;;;;21.42;10.55;;;;;;;-2.58;100.00;99805.09;6097889;19;20011;-70
2024/01/12 06:34:54;;;;;;;24.92;11.10;;;;;;;-2.60;100.00;99804.53;6097132;19;20482;-71
2024/01/12 06:36:56;;;;;;;28.83;11.88;;;;;;;-2.60;100.00;99807.25;6104135;19;20038;-71
2024/01/12 06:38:57;;;;;;;32.95;11.18;;;;;;;-2.60;100.00;99807.25;6102284;19;20372;-71
2024/01/12 06:40:57;;;;;;;25.45;10.40;;;;;;;-2.59;100.00;99810.78;6103813;19;20077;-71
2024/01/12 06:42:58;;;;;;;24.05;10.35;;;;;;;-2.58;100.00;99807.78;6102323;19;20510;-71
2024/01/12 06:44:59;;;;;;;26.50;11.60;;;;;;;-2.55;100.00;99820.84;6101235;19;20003;-70
2024/01/12 06:46:59;;;;;;;19.60;10.00;;;;;;;-2.55;100.00;99814.63;6102410;19;20080;-71
2024/01/12 06:49:00;;;;;;;22.65;10.60;;;;;;;-2.55;100.00;99822.75;6105069;19;20337;-71
2024/01/12 06:51:00;;;;;;;25.95;11.18;;;;;;;-2.60;100.00;99809.13;6110131;19;20576;-71
2024/01/12 06:53:04;;;;;;;23.17;10.90;;;;;;;-2.62;100.00;99812.13;6110879;19;20614;-71
2024/01/12 06:55:04;;;;;;;27.10;10.07;;;;;;;-2.63;100.00;99820.50;6109400;19;20013;-71
2024/01/12 06:57:05;;;;;;;19.05;8.65;;;;;;;-2.61;100.00;99819.16;6111558;19;20019;-71
2024/01/12 06:59:05;;;;;;;20.05;6.80;;;;;;;-2.64;100.00;99816.97;6112767;19;20264;-70
2024/01/12 07:01:06;;;;;;;18.60;7.72;;;;;;;-2.61;100.00;99816.44;6112043;19;20018;-70
2024/01/12 07:03:06;;;;;;;23.30;10.18;;;;;;;-2.61;100.00;99819.16;6111900;19;20033;-71
2024/01/12 07:05:07;;;;;;;24.35;11.15;;;;;;;-2.63;100.00;99815.09;6110672;19;20007;-71
2024/01/12 07:07:09;;;;;;;21.80;8.70;;;;;;;-2.62;100.00;99824.84;6110385;19;20066;-70
2024/01/12 07:09:12;;;;;;;22.17;9.00;;;;;;;-2.58;100.00;99815.94;6111218;19;20006;-70
2024/01/12 07:11:13;;;;;;;24.10;10.05;;;;;;;-2.59;100.00;99829.75;6110945;19;20014;-71
2024/01/12 07:13:13;;;;;;;34.35;14.75;;;;;;;-2.53;100.00;99830.59;6111136;19;20353;-71
2024/01/12 07:15:14;;;;;;;24.65;12.98;;;;;;;-2.51;100.00;99829.25;6110104;19;20006;-71
2024/01/12 07:17:15;;;;;;;22.60;8.55;;;;;;;-2.40;100.00;99822.84;6111008;19;20014;-71
2024/01/12 07:19:15;;;;;;;17.45;7.65;;;;;;;-2.44;100.00;99818.19;6109828;19;20452;-71
2024/01/12 07:21:16;;;;;;;18.48;7.55;;;;;;;-2.46;100.00;99809.53;6111081;19;20034;-71
2024/01/12 07:23:16;;;;;;;21.23;9.60;;;;;;;-2.51;100.00;99817.59;6109558;19;20082;-71
2024/01/12 07:25:17;;;;;;;16.52;7.95;;;;;;;-2.56;100.00;99808.38;6108904;19;20006;-71
2024/01/12 07:27:20;;;;;;;19.13;7.50;;;;;;;-2.57;100.00;99819.44;6108352;19;20074;-70
2024/01/12 07:29:22;;;;;;;19.42;8.02;;;;;;;-2.54;100.00;99808.13;6109883;19;20002;-70
2024/01/12 07:31:22;;;;;;;19.58;9.45;;;;;;;-2.48;100.00;99812.50;6109742;19;20010;-70
2024/01/12 07:33:23;;;;;;;19.25;8.52;;;;;;;-2.48;100.00;99808.94;6108075;19;20562;-71
2024/01/12 07:35:23;;;;;;;22.52;10.82;;;;;;;-2.48;100.00;99814.38;6110603;19;20023;-70
2024/01/12 07:37:23;;;;;;;20.90;9.80;;;;;;;-2.47;100.00;99816.84;6109410;19;20002;-71
2024/01/12 07:39:24;;;;;;;27.38;12.18;;;;;;;-2.43;100.00;99822.53;6108993;19;20003;-70
2024/01/12 07:41:24;;;;;;;19.45;8.00;;;;;;;-2.50;100.00;99828.19;6109385;19;20095;-71
2024/01/12 07:43:27;;;;;;;20.60;9.18;;;;;;;-2.53;100.00;99820.59;6108927;19;20009;-71
2024/01/12 07:45:27;;;;;;;20.00;8.15;;;;;;;-2.49;100.00;99818.97;6109636;19;20342;-71
2024/01/12 07:47:27;;;;;;;19.45;7.80;;;;;;;-2.56;100.00;99815.69;6108890;19;20002;-71
2024/01/12 07:49:27;;;;;;;19.45;8.27;;;;;;;-2.51;100.00;99826.56;6110151;19;20066;-71
2024/01/12 07:51:28;;;;;;;15.40;8.52;;;;;;;-2.56;100.00;99819.22;6107991;19;20078;-71
2024/01/12 07:53:29;;;;;;;17.27;8.25;;;;;;;-2.56;100.00;99818.41;6108042;19;20005;-71
2024/01/12 07:55:29;;;;;;;18.67;9.52;;;;;;;-2.56;100.00;99821.09;6109076;19;19994;-71
2024/01/12 07:57:29;;;;;;;16.30;6.90;;;;;;;-2.44;100.00;99819.03;6109268;19;20486;-71
2024/01/12 07:59:30;;;;;;;14.18;7.38;;;;;;;-2.44;100.00;99823.63;6109538;19;20002;-70
2024/01/12 08:01:30;;;;;;;11.27;5.18;;;;;;;-2.36;100.00;99809.59;6109529;19;20002;-71
2024/01/12 08:03:30;;;;;;;11.77;6.22;;;;;;;-2.36;100.00;99823.16;6108813;19;20010;-71
2024/01/12 08:05:31;;;;;;;15.18;7.97;;;;;;;-2.36;100.00;99820.44;6109955;19;20018;-71
2024/01/12 08:07:31;;;;;;;14.85;7.70;;;;;;;-2.30;100.00;99813.97;6107969;19;20332;-71
2024/01/12 08:09:32;;;;;;;15.88;8.25;;;;;;;-2.30;100.00;99825.63;6108948;19;19998;-71
2024/01/12 08:11:32;;;;;;;16.85;8.15;;;;;;;-2.29;100.00;99815.59;6109175;19;20498;-71
2024/01/12 08:13:33;;;;;;;18.30;12.52;;;;;;;-2.32;100.00;99818.81;6108008;19;20002;-71
2024/01/12 08:15:33;;;;;;;14.25;9.05;;;;;;;-2.35;100.00;99814.75;6108924;19;20394;-71
2024/01/12 08:17:33;;;;;;;18.00;9.93;;;;;;;-2.35;100.00;99830.19;6109031;19;20005;-71
2024/01/12 08:19:34;;;;;;;13.82;6.65;;;;;;;-2.33;100.00;99826.13;6108724;19;20546;-71
2024/01/12 08:21:34;;;;;;;12.88;7.47;;;;;;;-2.35;100.00;99830.19;6109662;19;20029;-71
2024/01/12 08:23:34;;;;;;;10.57;5.47;;;;;;;-2.34;100.00;99819.09;6107712;19;20003;-71
2024/01/12 08:25:34;;;;;;;13.63;6.70;;;;;;;-2.28;100.00;99825.38;6108660;19;20002;-71
2024/01/12 08:27:35;;;;;;;13.38;7.32;;;;;;;-2.35;100.00;99822.88;6108532;19;20006;-71
2024/01/12 08:29:35;;;;;;;12.13;7.03;;;;;;;-2.32;100.00;99808.81;6108657;19;20392;-71
2024/01/12 08:31:35;;;;;;;14.57;7.60;;;;;;;-2.24;100.00;99836.50;6109394;19;20007;-71
2024/01/12 08:33:37;;;;;;;13.93;6.88;;;;;;;-2.25;100.00;99835.69;6106990;19;20010;-71
2024/01/12 08:35:37;;;;;;;12.23;6.88;;;;;;;-2.30;100.00;99831.06;6109382;19;20066;-71
2024/01/12 08:37:37;;;;;;;12.27;6.63;;;;;;;-2.28;100.00;99831.59;6106542;19;19998;-71
2024/01/12 08:39:38;;;;;;;13.50;6.88;;;;;;;-2.28;100.00;99837.03;6108648;19;20046;-71
2024/01/12 08:41:38;;;;;;;9.30;5.72;;;;;;;-2.28;100.00;99828.91;6109342;19;20656;-71
2024/01/12 08:43:39;;;;;;;10.52;6.10;;;;;;;-2.30;100.00;99828.34;6108574;19;20030;-71
2024/01/12 08:45:39;;;;;;;14.45;6.53;;;;;;;-2.29;100.00;99838.09;6108635;19;20006;-71
2024/01/12 08:47:40;;;;;;;17.35;9.25;;;;;;;-2.31;100.00;99839.47;6107859;19;20010;-71
2024/01/12 08:49:40;;;;;;;21.48;10.32;;;;;;;-2.25;100.00;99846.53;6108641;19;20023;-71
2024/01/12 08:51:40;;;;;;;17.63;8.80;;;;;;;-2.27;100.00;99841.38;6108289;19;20526;-71
2024/01/12 08:53:40;;;;;;;20.55;9.57;;;;;;;-2.24;100.00;99837.31;6107141;19;20407;-71
2024/01/12 08:55:41;;;;;;;27.65;12.18;;;;;;;-2.26;100.00;99826.72;6109473;19;20420;-71
2024/01/12 08:57:41;;;;;;;25.77;12.35;;;;;;;-2.28;100.00;99820.75;6106196;19;20003;-71
2024/01/12 08:59:42;;;;;;;17.90;8.63;;;;;;;-2.22;100.00;99818.09;6108895;19;20074;-71
2024/01/12 09:01:42;;;;;;;34.78;14.50;;;;;;;-2.24;100.00;99826.47;6107771;19;20757;-71
2024/01/12 09:03:42;;;;;;;23.67;11.20;;;;;;;-2.27;100.00;99833.22;6107764;19;20019;-71
2024/01/12 09:05:42;;;;;;;26.73;12.52;;;;;;;-2.17;100.00;99828.97;6106119;19;19999;-71
2024/01/12 09:07:43;;;;;;;46.90;17.77;;;;;;;-2.20;100.00;99818.66;6106892;19;20463;-71
2024/01/12 09:09:44;;;;;;;39.45;16.45;;;;;;;-2.26;100.00;99818.59;6103701;19;20002;-71